Time;durP1;ratioP1;P1;durP2;ratioP2;P2;SDS_P1;SDS_P2;PMS_P1;PMS_P2;Temp;Humidity;BMP_temperature;BMP_pressure;BME280_temperature;BME280_humidity;BME280_pressure;Samples;Min_cycle;Max_cycle;Signal;HPM_P1;HPM_P2
2023/10/05 00:00:31;;;;;;;12.00;2.80;;;;;;;10.21;84.09;101095.72;110686;1272;22192;-56
2023/10/05 00:03:13;;;;;;;11.40;2.50;;;;;;;10.23;84.21;101095.90;110644;1272;22203;-57
2023/10/05 00:05:44;;;;;;;12.90;2.70;;;;;;;10.25;84.25;101084.23;110629;1272;22827;-57
2023/10/05 00:08:15;;;;;;;15.50;3.20;;;;;;;10.26;84.18;101083.25;110672;1272;22267;-58
2023/10/05 00:10:47;;;;;;;13.60;3.10;;;;;;;10.28;84.29;101083.91;110661;1272;22279;-57
2023/10/05 00:13:17;;;;;;;12.00;2.30;;;;;;;10.30;84.42;101083.58;110679;1272;22406;-57
2023/10/05 00:15:48;;;;;;;14.90;3.00;;;;;;;10.33;84.45;101084.28;110603;1272;22175;-58
2023/10/05 00:18:21;;;;;;;12.50;2.80;;;;;;;10.35;84.46;101084.60;110660;1272;22333;-56
2023/10/05 00:20:53;;;;;;;14.30;2.80;;;;;;;10.36;84.63;101087.19;110678;1272;22219;-58
2023/10/05 00:23:24;;;;;;;15.60;2.80;;;;;;;10.38;84.69;101081.52;110684;1272;22257;-59
2023/10/05 00:25:56;;;;;;;16.80;3.40;;;;;;;10.40;84.69;101074.67;110711;1272;22254;-57
2023/10/05 00:28:27;;;;;;;14.70;2.60;;;;;;;10.43;84.68;101068.55;110629;1272;23662;-58
2023/10/05 00:31:00;;;;;;;19.10;3.10;;;;;;;10.48;84.70;101064.70;110690;1272;23089;-58
2023/10/05 00:33:31;;;;;;;13.00;2.60;;;;;;;10.50;84.64;101074.27;110691;1272;22381;-57
2023/10/05 00:36:05;;;;;;;16.40;3.30;;;;;;;10.51;84.68;101069.59;110705;1272;22150;-57
2023/10/05 00:38:36;;;;;;;13.00;3.60;;;;;;;10.51;84.51;101067.93;110636;1272;22184;-59
2023/10/05 00:41:09;;;;;;;15.10;3.00;;;;;;;10.49;84.56;101062.25;110701;1272;22160;-58
2023/10/05 00:43:40;;;;;;;12.10;2.40;;;;;;;10.48;84.54;101065.19;110618;1272;22256;-56
2023/10/05 00:46:12;;;;;;;14.10;2.40;;;;;;;10.46;84.56;101067.58;110697;1272;22176;-57
2023/10/05 00:48:57;;;;;;;12.50;2.80;;;;;;;10.42;84.70;101068.11;110617;1272;22253;-57
2023/10/05 00:51:31;;;;;;;12.70;2.70;;;;;;;10.39;84.72;101069.19;110650;1272;22418;-60
2023/10/05 00:54:05;;;;;;;12.20;2.90;;;;;;;10.37;84.92;101071.91;110715;1272;22388;-57
2023/10/05 00:56:38;;;;;;;15.50;2.60;;;;;;;10.36;84.82;101072.36;110679;1272;22202;-60
2023/10/05 00:59:11;;;;;;;15.80;3.30;;;;;;;10.35;84.98;101068.15;110664;1272;22253;-56
2023/10/05 01:02:01;;;;;;;16.90;3.50;;;;;;;10.35;85.07;101063.06;110645;1272;22268;-58
2023/10/05 01:04:52;;;;;;;12.10;2.50;;;;;;;10.36;84.96;101055.76;110663;1272;22988;-57
2023/10/05 01:07:43;;;;;;;13.50;2.50;;;;;;;10.36;85.02;101057.52;110694;1272;22153;-58
2023/10/05 01:10:28;;;;;;;10.10;2.00;;;;;;;10.37;85.07;101059.01;110650;1272;22255;-57
2023/10/05 01:13:00;;;;;;;14.40;3.20;;;;;;;10.37;85.19;101051.44;110634;1272;22211;-58
2023/10/05 01:15:34;;;;;;;13.90;2.50;;;;;;;10.35;85.17;101050.31;110707;1272;22167;-58
2023/10/05 01:18:05;;;;;;;15.60;2.80;;;;;;;10.34;85.17;101044.51;110644;1272;23280;-56
2023/10/05 01:20:37;;;;;;;14.30;2.40;;;;;;;10.33;85.13;101041.13;110640;1273;22143;-55
2023/10/05 01:23:08;;;;;;;12.70;2.30;;;;;;;10.32;85.14;101045.15;110645;1272;22294;-56
2023/10/05 01:25:39;;;;;;;12.70;2.40;;;;;;;10.31;84.94;101043.86;110700;1272;22187;-57
2023/10/05 01:28:11;;;;;;;12.60;2.70;;;;;;;10.28;84.89;101044.69;110693;1272;22621;-57
2023/10/05 01:30:42;;;;;;;15.80;2.50;;;;;;;10.23;84.88;101044.33;110662;1272;22299;-56
2023/10/05 01:33:13;;;;;;;13.90;2.80;;;;;;;10.19;84.89;101041.20;110680;1272;22146;-58
2023/10/05 01:35:46;;;;;;;12.10;2.40;;;;;;;10.17;85.00;101041.76;110593;1257;22217;-56
2023/10/05 01:38:18;;;;;;;13.30;2.60;;;;;;;10.16;84.99;101041.96;110681;1269;22426;-58
2023/10/05 01:40:54;;;;;;;12.80;2.50;;;;;;;10.14;84.88;101040.22;110674;1272;22892;-57
2023/10/05 01:43:28;;;;;;;16.00;2.70;;;;;;;10.09;84.92;101033.66;110654;1272;22209;-57
2023/10/05 01:45:59;;;;;;;13.00;2.70;;;;;;;10.07;84.92;101024.27;110676;1273;22978;-58
2023/10/05 01:48:31;;;;;;;10.00;2.40;;;;;;;10.05;84.93;101026.31;110665;1272;22197;-57
2023/10/05 01:51:08;;;;;;;12.40;2.70;;;;;;;10.04;85.02;101023.89;110687;1272;22815;-58
2023/10/05 01:53:40;;;;;;;15.00;2.40;;;;;;;10.03;85.27;101026.27;110661;1273;22990;-58
2023/10/05 01:56:17;;;;;;;16.80;2.80;;;;;;;10.02;85.24;101024.16;110667;1272;22301;-56
2023/10/05 01:58:50;;;;;;;13.00;3.00;;;;;;;10.01;85.23;101017.54;110598;1262;22189;-59
2023/10/05 02:01:28;;;;;;;13.00;2.70;;;;;;;9.98;85.20;101018.77;110664;1265;23025;-57
2023/10/05 02:03:59;;;;;;;14.40;2.50;;;;;;;9.98;85.33;101008.76;110665;1272;22229;-58
2023/10/05 02:06:30;;;;;;;16.20;2.50;;;;;;;9.96;85.29;101008.45;110660;1273;22245;-58
2023/10/05 02:09:00;;;;;;;14.80;2.70;;;;;;;9.93;85.32;101013.25;110697;1266;22227;-59
2023/10/05 02:11:33;;;;;;;10.50;2.20;;;;;;;9.90;85.34;101008.55;110671;1269;22194;-59
2023/10/05 02:14:04;;;;;;;10.90;2.00;;;;;;;9.88;85.27;101010.40;110681;1265;22146;-59
2023/10/05 02:16:37;;;;;;;14.00;2.20;;;;;;;9.86;85.37;101015.11;110682;1272;22207;-56
2023/10/05 02:19:08;;;;;;;10.80;2.40;;;;;;;9.81;85.30;101015.77;110649;1272;23183;-58
2023/10/05 02:21:39;;;;;;;9.70;2.10;;;;;;;9.79;85.24;101021.34;110688;1272;22267;-58
2023/10/05 02:24:15;;;;;;;7.60;2.00;;;;;;;9.77;85.14;101018.70;110673;1272;22153;-58
2023/10/05 02:27:09;;;;;;;11.40;2.40;;;;;;;9.74;85.23;101016.73;110652;1272;22401;-57
2023/10/05 02:29:43;;;;;;;12.80;2.50;;;;;;;9.70;85.19;101014.48;110666;1272;22159;-58
2023/10/05 02:32:21;;;;;;;9.90;2.00;;;;;;;9.66;85.03;101011.06;110676;1272;23429;-59
2023/10/05 02:35:06;;;;;;;11.70;2.00;;;;;;;9.61;85.02;101013.41;110634;1272;22191;-58
2023/10/05 02:37:40;;;;;;;14.50;2.40;;;;;;;9.56;84.95;101013.50;110660;1265;22297;-59
2023/10/05 02:40:12;;;;;;;13.30;2.50;;;;;;;9.52;84.98;101010.63;110641;1269;22253;-57
2023/10/05 02:42:43;;;;;;;12.40;2.20;;;;;;;9.49;84.96;101008.84;110673;1272;23292;-56
2023/10/05 02:45:17;;;;;;;14.60;2.20;;;;;;;9.45;85.07;101009.30;110686;1272;22198;-58
2023/10/05 02:47:50;;;;;;;16.70;2.60;;;;;;;9.39;84.95;101017.17;110628;1272;22200;-57
2023/10/05 02:50:21;;;;;;;10.80;2.10;;;;;;;9.33;84.99;101022.06;110651;1272;24551;-58
2023/10/05 02:52:52;;;;;;;11.40;2.10;;;;;;;9.29;85.05;101021.71;110675;1272;22983;-56
2023/10/05 02:55:24;;;;;;;9.40;2.40;;;;;;;9.26;85.32;101022.70;110669;1272;22433;-57
2023/10/05 02:58:00;;;;;;;12.00;3.20;;;;;;;9.23;85.19;101020.27;110649;1272;22195;-57
2023/10/05 03:00:33;;;;;;;11.50;1.90;;;;;;;9.18;85.30;101020.75;110652;1272;22831;-56
2023/10/05 03:03:05;;;;;;;15.20;2.00;;;;;;;9.14;85.17;101017.73;110675;1272;22348;-58
2023/10/05 03:05:36;;;;;;;13.60;2.80;;;;;;;9.11;85.35;101020.28;110663;1272;22358;-57
2023/10/05 03:08:09;;;;;;;8.90;2.20;;;;;;;9.09;85.40;101017.33;110665;1265;22157;-58
2023/10/05 03:10:43;;;;;;;9.70;2.20;;;;;;;9.10;85.54;101013.65;110649;1272;22232;-60
2023/10/05 03:13:16;;;;;;;11.40;1.90;;;;;;;9.12;85.79;101011.28;110632;1272;22134;-57
2023/10/05 03:15:49;;;;;;;11.40;1.90;;;;;;;9.13;86.30;101010.18;110660;1272;23004;-57
2023/10/05 03:18:19;;;;;;;12.40;2.10;;;;;;;9.18;86.69;101000.87;110637;1272;22909;-61
2023/10/05 03:20:50;;;;;;;15.30;2.50;;;;;;;9.21;86.85;101001.46;110660;1272;22925;-59
2023/10/05 03:23:21;;;;;;;14.40;2.70;;;;;;;9.23;86.78;101002.36;110657;1272;23443;-58
2023/10/05 03:25:56;;;;;;;13.20;2.00;;;;;;;9.25;87.09;100995.83;110661;1272;22211;-59
2023/10/05 03:28:27;;;;;;;12.90;3.00;;;;;;;9.28;87.24;100993.34;110641;1272;22361;-60
2023/10/05 03:31:03;;;;;;;13.50;2.80;;;;;;;9.31;87.39;100984.64;110669;1272;22909;-57
2023/10/05 03:33:34;;;;;;;9.20;1.70;;;;;;;9.34;87.48;100975.46;110675;1266;22876;-58
2023/10/05 03:36:13;;;;;;;14.00;2.20;;;;;;;9.37;87.53;100975.64;110602;1272;23013;-59
2023/10/05 03:38:54;;;;;;;13.40;2.40;;;;;;;9.41;87.54;100974.27;110640;1272;23079;-59
2023/10/05 03:41:27;;;;;;;11.80;2.40;;;;;;;9.43;87.52;100978.45;110684;1272;22485;-59
2023/10/05 03:44:01;;;;;;;13.00;2.20;;;;;;;9.45;87.53;100979.91;110609;1272;22202;-57
2023/10/05 03:46:33;;;;;;;16.40;2.50;;;;;;;9.46;87.56;100980.11;110565;1261;22412;-62
2023/10/05 03:49:06;;;;;;;15.60;2.30;;;;;;;9.47;87.60;100978.96;110602;1269;23324;-56
2023/10/05 03:51:43;;;;;;;10.50;2.00;;;;;;;9.48;87.45;100976.46;110576;1266;22626;-55
2023/10/05 03:54:14;;;;;;;10.90;1.90;;;;;;;9.47;87.33;100968.36;110607;1272;22218;-58
2023/10/05 03:56:45;;;;;;;11.20;2.10;;;;;;;9.47;87.45;100967.49;110598;1272;23173;-55
2023/10/05 03:59:17;;;;;;;12.60;1.90;;;;;;;9.49;87.76;100958.84;110663;1273;22258;-59
2023/10/05 04:01:49;;;;;;;8.60;1.90;;;;;;;9.49;87.59;100954.19;110656;1272;22206;-56
2023/10/05 04:04:22;;;;;;;10.70;2.10;;;;;;;9.50;87.67;100947.06;110645;1273;22405;-55
2023/10/05 04:06:54;;;;;;;10.00;2.90;;;;;;;9.51;87.71;100932.55;110603;1272;22867;-58
2023/10/05 04:09:28;;;;;;;12.80;2.10;;;;;;;9.52;87.90;100928.92;110557;1266;22277;-57
2023/10/05 04:12:00;;;;;;;8.10;1.50;;;;;;;9.53;87.96;100928.27;110603;1269;22421;-56
2023/10/05 04:14:33;;;;;;;10.50;2.00;;;;;;;9.54;87.92;100926.77;110641;1267;22143;-57
2023/10/05 04:17:07;;;;;;;11.40;2.50;;;;;;;9.53;88.17;100920.98;110596;1260;22294;-58
2023/10/05 04:19:41;;;;;;;13.20;2.60;;;;;;;9.54;88.17;100918.88;110607;1267;22330;-57
2023/10/05 04:22:14;;;;;;;13.60;2.40;;;;;;;9.56;88.21;100922.23;110619;1266;22337;-57
2023/10/05 04:24:45;;;;;;;10.60;2.20;;;;;;;9.57;88.17;100924.17;110550;1265;22384;-58
2023/10/05 04:27:18;;;;;;;12.70;2.40;;;;;;;9.58;88.10;100932.04;110604;1265;22318;-62
2023/10/05 04:29:50;;;;;;;15.70;3.20;;;;;;;9.59;88.18;100930.24;110575;1262;22429;-59
2023/10/05 04:32:21;;;;;;;12.10;2.20;;;;;;;9.60;88.34;100925.57;110585;1269;22337;-58
2023/10/05 04:34:53;;;;;;;15.20;2.20;;;;;;;9.62;88.45;100923.05;110580;1266;22931;-61
2023/10/05 04:37:25;;;;;;;15.70;2.10;;;;;;;9.63;88.45;100922.45;110605;1272;22596;-64
2023/10/05 04:39:59;;;;;;;10.20;1.90;;;;;;;9.63;88.41;100918.44;110616;1272;22236;-64
2023/10/05 04:42:31;;;;;;;14.00;2.30;;;;;;;9.66;88.58;100916.13;110633;1272;23494;-64
2023/10/05 04:45:10;;;;;;;12.90;2.50;;;;;;;9.66;88.43;100907.02;110606;1272;22165;-64
2023/10/05 04:47:41;;;;;;;13.80;2.20;;;;;;;9.68;88.46;100901.95;110590;1272;22471;-65
2023/10/05 04:50:15;;;;;;;15.20;2.40;;;;;;;9.69;88.61;100905.02;110627;1263;22139;-65
2023/10/05 04:52:50;;;;;;;15.90;2.20;;;;;;;9.71;88.63;100902.47;110591;1273;22137;-63
2023/10/05 04:55:31;;;;;;;14.30;2.10;;;;;;;9.73;88.55;100902.43;110624;1273;22373;-63
2023/10/05 04:58:15;;;;;;;;;;;;;;;9.75;88.42;100897.67;110611;1267;22460;-64
2023/10/05 05:00:54;;;;;;;15.50;2.40;;;;;;;9.76;88.59;100896.54;110625;1272;22138;-62
2023/10/05 05:03:48;;;;;;;13.50;2.60;;;;;;;9.77;88.45;100897.69;110661;1273;22346;-62
2023/10/05 05:06:20;;;;;;;14.40;2.10;;;;;;;9.78;88.54;100901.23;110619;1272;22339;-61
2023/10/05 05:08:51;;;;;;;15.80;3.20;;;;;;;9.77;88.42;100899.73;110614;1273;22292;-63
2023/10/05 05:11:22;;;;;;;8.70;1.70;;;;;;;9.77;88.43;100899.83;110643;1272;23057;-64
2023/10/05 05:13:54;;;;;;;13.30;2.30;;;;;;;9.77;88.35;100903.89;110661;1269;22347;-62
2023/10/05 05:16:25;;;;;;;14.20;2.30;;;;;;;9.79;88.46;100903.27;110619;1273;22126;-62
2023/10/05 05:18:56;;;;;;;12.00;2.10;;;;;;;9.80;88.32;100907.38;110647;1272;22161;-62
2023/10/05 05:21:28;;;;;;;11.90;2.00;;;;;;;9.82;88.46;100910.91;110628;1272;22796;-62
2023/10/05 05:23:59;;;;;;;12.40;1.90;;;;;;;9.83;88.58;100914.73;110651;1272;22188;-64
2023/10/05 05:26:30;;;;;;;15.80;2.20;;;;;;;9.85;88.49;100920.30;110625;1272;22318;-62
2023/10/05 05:29:02;;;;;;;7.60;2.40;;;;;;;9.87;88.57;100919.85;110638;1273;22247;-62
2023/10/05 05:31:34;;;;;;;11.80;3.30;;;;;;;9.89;88.64;100919.36;110592;1273;22386;-62
2023/10/05 05:34:06;;;;;;;13.30;3.10;;;;;;;9.89;88.47;100917.88;110661;1273;22677;-63
2023/10/05 05:36:37;;;;;;;9.70;2.20;;;;;;;9.89;88.63;100919.94;110597;1272;22173;-63
2023/10/05 05:39:12;;;;;;;12.60;2.30;;;;;;;9.89;88.60;100912.27;110645;1272;22197;-62
2023/10/05 05:41:45;;;;;;;11.10;2.30;;;;;;;9.89;88.66;100911.16;110619;1272;22222;-62
2023/10/05 05:44:20;;;;;;;11.20;2.60;;;;;;;9.91;88.62;100909.17;110626;1269;23035;-61
2023/10/05 05:46:55;;;;;;;13.50;2.60;;;;;;;9.92;88.65;100914.62;110633;1272;22177;-61
2023/10/05 05:49:27;;;;;;;10.10;1.90;;;;;;;9.94;88.76;100914.00;110620;1272;22953;-60
2023/10/05 05:51:58;;;;;;;12.50;2.30;;;;;;;9.97;88.74;100912.06;110643;1272;22142;-61
2023/10/05 05:54:31;;;;;;;14.20;2.80;;;;;;;10.00;89.02;100917.84;110613;1266;22276;-60
2023/10/05 05:57:05;;;;;;;12.90;2.30;;;;;;;10.01;88.84;100917.12;110634;1272;22169;-60
2023/10/05 05:59:38;;;;;;;14.60;2.50;;;;;;;10.04;88.94;100917.63;110624;1272;22731;-61
2023/10/05 06:02:10;;;;;;;15.30;3.20;;;;;;;10.09;89.03;100916.59;110635;1272;22165;-61
2023/10/05 06:04:41;;;;;;;14.20;3.40;;;;;;;10.13;89.02;100910.38;110631;1272;23088;-60
2023/10/05 06:07:13;;;;;;;17.90;2.70;;;;;;;10.15;89.08;100909.73;110623;1272;22126;-61
2023/10/05 06:09:45;;;;;;;18.40;2.70;;;;;;;10.17;89.11;100906.77;110594;1273;22151;-60
2023/10/05 06:12:16;;;;;;;17.00;2.60;;;;;;;10.19;88.96;100909.19;110609;1269;22189;-61
2023/10/05 06:14:47;;;;;;;12.20;2.20;;;;;;;10.21;88.90;100903.83;110621;1269;22148;-61
2023/10/05 06:17:19;;;;;;;13.10;2.70;;;;;;;10.23;88.84;100903.13;110623;1272;23169;-60
2023/10/05 06:19:50;;;;;;;14.60;2.70;;;;;;;10.25;88.99;100902.48;110633;1272;23435;-61
2023/10/05 06:22:21;;;;;;;18.20;2.40;;;;;;;10.28;88.94;100902.27;110634;1272;22209;-61
2023/10/05 06:24:52;;;;;;;12.00;2.50;;;;;;;10.31;88.87;100901.91;110618;1272;22123;-62
2023/10/05 06:27:23;;;;;;;11.70;2.20;;;;;;;10.32;88.91;100905.61;110658;1272;22160;-64
2023/10/05 06:29:54;;;;;;;11.00;2.10;;;;;;;10.35;89.16;100908.28;110612;1272;22185;-63
2023/10/05 06:32:25;;;;;;;11.90;2.30;;;;;;;10.38;89.16;100911.83;110626;1272;23186;-63
2023/10/05 06:34:56;;;;;;;15.20;2.70;;;;;;;10.42;89.35;100914.52;110591;1272;22237;-62
2023/10/05 06:37:27;;;;;;;15.80;2.70;;;;;;;10.47;89.33;100912.18;110645;1269;22507;-64
2023/10/05 06:39:58;;;;;;;11.70;2.30;;;;;;;10.52;89.57;100910.21;110642;1272;22149;-64
2023/10/05 06:42:29;;;;;;;20.00;2.90;;;;;;;10.58;89.50;100914.14;110624;1272;22330;-62
2023/10/05 06:45:00;;;;;;;15.10;2.70;;;;;;;10.66;89.57;100914.31;110644;1272;23239;-62
2023/10/05 06:47:36;;;;;;;16.50;2.30;;;;;;;10.73;89.58;100911.73;110632;1272;22341;-62
2023/10/05 06:50:11;;;;;;;14.90;2.20;;;;;;;10.80;89.63;100909.97;110604;1257;22142;-63
2023/10/05 06:52:43;;;;;;;17.60;2.50;;;;;;;10.87;89.73;100916.36;110628;1266;22149;-63
2023/10/05 06:55:17;;;;;;;16.00;3.10;;;;;;;10.94;89.50;100915.65;110627;1272;22193;-62
2023/10/05 06:57:50;;;;;;;12.50;2.60;;;;;;;11.01;89.41;100913.10;110624;1272;23381;-63
2023/10/05 07:00:21;;;;;;;14.80;2.40;;;;;;;11.07;88.98;100913.32;110628;1272;22229;-62
2023/10/05 07:02:54;;;;;;;15.30;2.30;;;;;;;11.14;89.10;100907.51;110623;1272;23311;-62
2023/10/05 07:05:27;;;;;;;13.70;2.40;;;;;;;11.20;88.98;100907.88;110636;1272;22382;-63
2023/10/05 07:07:58;;;;;;;10.80;2.10;;;;;;;11.25;88.91;100908.98;110624;1272;22431;-63
2023/10/05 07:10:31;;;;;;;11.90;2.40;;;;;;;11.31;89.04;100905.94;110654;1272;22322;-62
2023/10/05 07:13:03;;;;;;;6.90;1.80;;;;;;;11.38;88.87;100907.95;110603;1253;22206;-63
2023/10/05 07:15:34;;;;;;;11.70;1.90;;;;;;;11.44;88.71;100907.81;110607;1272;22125;-63
2023/10/05 07:18:06;;;;;;;9.20;1.90;;;;;;;11.49;88.53;100906.15;110594;1272;22210;-61
2023/10/05 07:20:41;;;;;;;8.90;1.70;;;;;;;11.56;88.49;100902.26;110604;1272;22352;-61
2023/10/05 07:23:12;;;;;;;12.00;1.90;;;;;;;11.63;88.40;100904.01;110586;1263;22197;-61
2023/10/05 07:25:43;;;;;;;10.70;2.00;;;;;;;11.71;88.56;100909.04;110638;1272;22168;-61
2023/10/05 07:28:15;;;;;;;9.70;1.90;;;;;;;11.82;88.73;100911.84;110611;1272;22163;-61
2023/10/05 07:30:46;;;;;;;7.80;1.30;;;;;;;11.92;88.75;100911.73;110606;1272;22241;-61
2023/10/05 07:33:17;;;;;;;18.80;2.50;;;;;;;12.03;88.63;100912.16;110630;1263;22210;-61
2023/10/05 07:35:48;;;;;;;15.60;2.90;;;;;;;12.14;88.45;100908.70;110640;1272;22142;-61
2023/10/05 07:38:19;;;;;;;10.70;2.00;;;;;;;12.25;88.21;100904.16;110612;1272;22196;-61
2023/10/05 07:40:50;;;;;;;11.80;2.40;;;;;;;12.35;88.10;100900.52;110629;1272;22486;-61
2023/10/05 07:43:20;;;;;;;8.70;1.80;;;;;;;12.48;87.82;100902.17;110615;1272;22787;-61
2023/10/05 07:45:52;;;;;;;11.50;1.70;;;;;;;12.58;87.65;100898.39;110619;1272;22727;-61
2023/10/05 07:48:23;;;;;;;14.30;2.30;;;;;;;12.67;87.46;100896.64;110600;1272;22267;-61
2023/10/05 07:50:54;;;;;;;10.60;1.60;;;;;;;12.77;87.40;100898.54;110642;1272;22259;-61
2023/10/05 07:53:25;;;;;;;9.00;2.20;;;;;;;12.85;87.15;100893.02;110599;1272;22295;-61
2023/10/05 07:55:57;;;;;;;17.10;2.00;;;;;;;12.92;86.77;100890.95;110609;1272;22918;-61
2023/10/05 07:58:28;;;;;;;11.20;2.20;;;;;;;13.00;86.74;100888.34;110620;1272;22407;-60
2023/10/05 08:00:59;;;;;;;10.10;2.70;;;;;;;13.08;86.59;100886.70;110659;1272;22854;-60
2023/10/05 08:03:30;;;;;;;8.70;1.80;;;;;;;13.16;86.52;100884.19;110636;1272;22188;-61
2023/10/05 08:06:03;;;;;;;7.60;1.60;;;;;;;13.24;86.17;100889.38;110614;1272;22232;-61
2023/10/05 08:08:34;;;;;;;11.40;1.60;;;;;;;13.32;85.89;100886.02;110629;1272;22306;-61
2023/10/05 08:11:06;;;;;;;9.50;1.30;;;;;;;13.41;85.44;100888.36;110627;1272;22216;-61
2023/10/05 08:13:37;;;;;;;11.20;1.90;;;;;;;13.50;85.27;100890.51;110622;1257;22468;-61
2023/10/05 08:16:09;;;;;;;9.30;1.30;;;;;;;13.59;84.97;100889.70;110619;1272;24457;-61
2023/10/05 08:18:41;;;;;;;12.40;1.60;;;;;;;13.66;84.45;100892.13;110592;1272;22194;-63
2023/10/05 08:21:13;;;;;;;11.40;1.50;;;;;;;13.74;84.27;100894.55;110614;1273;22169;-62
2023/10/05 08:23:45;;;;;;;9.50;1.50;;;;;;;13.82;84.24;100890.90;110618;1263;23343;-62
2023/10/05 08:26:16;;;;;;;14.80;1.60;;;;;;;13.91;84.07;100892.16;110611;1272;22213;-63
2023/10/05 08:28:49;;;;;;;10.70;1.60;;;;;;;14.01;83.97;100887.02;110585;1272;22222;-62
2023/10/05 08:31:23;;;;;;;8.80;1.50;;;;;;;14.14;83.75;100886.39;110627;1273;23302;-64
2023/10/05 08:33:54;;;;;;;9.30;1.30;;;;;;;14.24;83.25;100886.96;110618;1272;22185;-63
2023/10/05 08:36:25;;;;;;;7.10;1.10;;;;;;;14.32;82.36;100883.58;110607;1272;22400;-63
2023/10/05 08:38:56;;;;;;;12.00;1.90;;;;;;;14.37;82.48;100880.75;110604;1272;22197;-62
2023/10/05 08:41:34;;;;;;;10.90;1.50;;;;;;;14.40;82.19;100879.55;110599;1273;22345;-63
2023/10/05 08:44:10;;;;;;;10.30;2.10;;;;;;;14.45;81.87;100876.65;110653;1273;22240;-63
2023/10/05 08:46:43;;;;;;;12.40;1.80;;;;;;;14.51;81.99;100871.77;110605;1273;22152;-63
2023/10/05 08:49:15;;;;;;;12.50;1.80;;;;;;;14.60;82.08;100866.34;110607;1273;22139;-63
2023/10/05 08:51:46;;;;;;;11.10;1.60;;;;;;;14.76;82.14;100875.30;110618;1273;22124;-64
2023/10/05 08:54:21;;;;;;;10.30;1.50;;;;;;;14.90;81.57;100875.73;110651;1272;22315;-63
2023/10/05 08:56:52;;;;;;;14.00;1.60;;;;;;;15.01;80.79;100874.94;110602;1273;23051;-62
2023/10/05 08:59:23;;;;;;;11.80;1.50;;;;;;;15.10;80.95;100875.60;110603;1272;22170;-64
2023/10/05 09:01:59;;;;;;;14.80;2.20;;;;;;;15.18;80.55;100871.19;110606;1273;23939;-61
2023/10/05 09:04:43;;;;;;;13.10;2.00;;;;;;;15.27;79.70;100870.61;110616;1272;23094;-58
2023/10/05 09:07:29;;;;;;;12.90;2.20;;;;;;;15.41;78.44;100877.46;110599;1273;22173;-59
2023/10/05 09:10:01;;;;;;;12.90;2.10;;;;;;;15.55;76.74;100876.94;110585;1272;22140;-62
2023/10/05 09:12:46;;;;;;;14.40;2.30;;;;;;;15.67;75.24;100867.88;110616;1272;22181;-59
2023/10/05 09:15:22;;;;;;;11.30;2.10;;;;;;;15.81;75.93;100867.69;110615;1272;22810;-60
2023/10/05 09:18:18;;;;;;;11.10;2.40;;;;;;;15.95;74.72;100866.67;110605;1272;22381;-60
2023/10/05 09:20:53;;;;;;;13.10;2.00;;;;;;;16.04;72.60;100871.54;110591;1272;22147;-60
2023/10/05 09:23:33;;;;;;;11.40;2.10;;;;;;;16.06;71.71;100872.06;110624;1272;22263;-60
2023/10/05 09:26:06;;;;;;;18.00;2.10;;;;;;;16.07;72.43;100871.87;110606;1272;22193;-59
2023/10/05 09:28:51;;;;;;;12.30;2.30;;;;;;;16.07;72.14;100871.52;110613;1272;22339;-59
2023/10/05 09:31:39;;;;;;;11.80;1.70;;;;;;;16.08;70.80;100874.44;110620;1272;23023;-60
2023/10/05 09:34:14;;;;;;;10.30;2.00;;;;;;;16.07;69.74;100880.52;110663;1263;22180;-60
2023/10/05 09:36:45;;;;;;;12.10;2.50;;;;;;;16.07;69.62;100880.95;110600;1272;22193;-60
2023/10/05 09:39:18;;;;;;;13.30;2.00;;;;;;;16.07;69.40;100885.19;110569;1272;22238;-63
2023/10/05 09:41:56;;;;;;;11.80;2.30;;;;;;;16.09;69.17;100883.52;110593;1273;23419;-61
2023/10/05 09:44:30;;;;;;;11.70;2.20;;;;;;;16.12;68.48;100886.55;110614;1273;23578;-59
2023/10/05 09:47:02;;;;;;;11.70;2.10;;;;;;;16.12;68.21;100889.37;110459;1273;229911;-62
2023/10/05 09:49:35;;;;;;;18.40;2.90;;;;;;;16.10;68.18;100892.38;110596;1273;22157;-59
2023/10/05 09:52:08;;;;;;;17.10;2.10;;;;;;;16.07;67.43;100888.98;110630;1273;22182;-63
2023/10/05 09:54:41;;;;;;;12.20;2.30;;;;;;;16.05;67.60;100890.66;110637;1273;22957;-61
2023/10/05 09:57:13;;;;;;;16.60;2.50;;;;;;;16.05;66.71;100891.47;110659;1273;22229;-63
2023/10/05 09:59:51;;;;;;;11.70;1.80;;;;;;;16.05;66.54;100893.83;110614;1273;22938;-60
2023/10/05 10:02:23;;;;;;;14.30;1.80;;;;;;;16.08;66.57;100893.13;110636;1267;22198;-62
2023/10/05 10:04:55;;;;;;;9.80;2.40;;;;;;;16.13;66.75;100889.07;110668;1273;22184;-59
2023/10/05 10:07:32;;;;;;;19.60;2.30;;;;;;;16.19;65.98;100893.73;110644;1270;22313;-60
2023/10/05 10:10:05;;;;;;;14.60;2.90;;;;;;;16.23;66.01;100886.88;110641;1269;23157;-58
2023/10/05 10:12:38;;;;;;;14.00;1.80;;;;;;;16.29;65.97;100882.25;110632;1267;22657;-60
2023/10/05 10:15:28;;;;;;;9.30;1.90;;;;;;;16.31;65.83;100873.90;110640;1273;23178;-61
2023/10/05 10:18:07;;;;;;;11.80;1.90;;;;;;;16.34;65.25;100882.44;110632;1273;22198;-59
2023/10/05 10:20:38;;;;;;;9.70;2.00;;;;;;;16.35;64.98;100876.50;110591;1271;22410;-59
2023/10/05 10:23:19;;;;;;;12.60;2.30;;;;;;;16.35;64.88;100875.88;110630;1272;22179;-62
2023/10/05 10:25:51;;;;;;;10.60;1.70;;;;;;;16.35;65.02;100879.82;110591;1273;22147;-60
2023/10/05 10:28:39;;;;;;;13.90;1.80;;;;;;;16.33;64.80;100869.15;110628;1272;23089;-59
2023/10/05 10:31:21;;;;;;;14.30;1.90;;;;;;;16.34;64.83;100859.74;110639;1273;23216;-58
2023/10/05 10:33:52;;;;;;;13.00;1.80;;;;;;;16.41;64.98;100858.04;110591;1273;23407;-60
2023/10/05 10:36:44;;;;;;;13.50;2.10;;;;;;;16.49;64.48;100849.27;110621;1272;22149;-59
2023/10/05 10:39:23;;;;;;;11.80;1.90;;;;;;;16.54;64.22;100851.73;110628;1272;22815;-58
2023/10/05 10:42:04;;;;;;;12.50;2.20;;;;;;;16.57;64.06;100847.84;110601;1272;22777;-58
2023/10/05 10:44:56;;;;;;;13.60;2.20;;;;;;;16.58;63.83;100846.46;110619;1267;23020;-58
2023/10/05 10:47:35;;;;;;;13.30;2.00;;;;;;;16.57;63.71;100837.23;110663;1272;22327;-58
2023/10/05 10:50:14;;;;;;;14.90;2.80;;;;;;;16.57;63.71;100834.52;110645;1272;22141;-58
2023/10/05 10:52:50;;;;;;;14.80;2.10;;;;;;;16.58;63.89;100833.91;110680;1272;23180;-58
2023/10/05 10:55:27;;;;;;;14.00;2.20;;;;;;;16.57;63.33;100831.55;110641;1272;22858;-57
2023/10/05 10:58:00;;;;;;;;;;;;;;;16.55;63.41;100830.41;110670;1261;22406;-58
2023/10/05 11:00:54;;;;;;;12.80;2.50;;;;;;;16.55;63.38;100831.13;110638;1272;22418;-58
2023/10/05 11:03:26;;;;;;;11.90;1.80;;;;;;;16.55;63.42;100827.38;110664;1272;22753;-57
2023/10/05 11:06:00;;;;;;;12.60;2.10;;;;;;;16.56;63.45;100824.36;110637;1272;22360;-58
2023/10/05 11:08:40;;;;;;;11.20;2.20;;;;;;;16.60;63.59;100822.39;110658;1272;22118;-60
2023/10/05 11:11:15;;;;;;;11.50;2.20;;;;;;;16.69;63.73;100819.54;110662;1269;22356;-58
2023/10/05 11:13:49;;;;;;;9.30;1.70;;;;;;;16.74;63.12;100820.75;110653;1264;22377;-58
2023/10/05 11:16:20;;;;;;;13.20;2.30;;;;;;;16.81;63.20;100815.01;110650;1272;22266;-58
2023/10/05 11:18:57;;;;;;;12.90;1.90;;;;;;;16.88;62.75;100814.88;110583;1272;22862;-58
2023/10/05 11:21:33;;;;;;;13.00;2.10;;;;;;;16.90;63.37;100814.79;110678;1272;22299;-58
2023/10/05 11:24:07;;;;;;;11.30;1.80;;;;;;;16.93;63.13;100816.48;110663;1272;22185;-58
2023/10/05 11:27:05;;;;;;;13.20;2.50;;;;;;;16.94;63.24;100815.11;110657;1257;22392;-60
2023/10/05 11:29:48;;;;;;;14.80;2.50;;;;;;;16.94;63.07;100811.02;110653;1272;23029;-60
2023/10/05 11:32:24;;;;;;;12.30;2.80;;;;;;;16.94;62.78;100818.27;110633;1272;22265;-59
2023/10/05 11:35:04;;;;;;;14.80;2.40;;;;;;;16.90;62.76;100808.48;110604;1272;22135;-59
2023/10/05 11:37:38;;;;;;;13.00;1.90;;;;;;;16.90;63.16;100803.39;110656;1272;22183;-59
2023/10/05 11:40:18;;;;;;;12.60;2.10;;;;;;;16.93;62.92;100801.87;110634;1272;22201;-60
2023/10/05 11:42:48;;;;;;;;;;;;;;;16.97;63.22;100797.73;110599;1272;22348;-59
2023/10/05 11:45:19;;;;;;;14.80;2.30;;;;;;;17.02;63.08;100799.84;110659;1272;22428;-60